sensor_id;sensor_type;location;lat;lon;timestamp;temperature;humidity
52731;DHT22;38624;53.242;6.974;2023-05-02T00:00:32;10.30;99.90
52731;DHT22;38624;53.242;6.974;2023-05-02T00:02:58;10.30;99.90
52731;DHT22;38624;53.242;6.974;2023-05-02T00:05:24;10.20;99.90
52731;DHT22;38624;53.242;6.974;2023-05-02T00:07:50;10.20;99.90
52731;DHT22;38624;53.242;6.974;2023-05-02T00:10:16;10.10;99.90
52731;DHT22;38624;53.242;6.974;2023-05-02T00:12:41;10.10;99.90
52731;DHT22;38624;53.242;6.974;2023-05-02T00:15:07;10.10;99.90
52731;DHT22;38624;53.242;6.974;2023-05-02T00:17:33;10.10;99.90
52731;DHT22;38624;53.242;6.974;2023-05-02T00:19:59;10.10;99.90
52731;DHT22;38624;53.242;6.974;2023-05-02T00:22:24;10.10;99.90
52731;DHT22;38624;53.242;6.974;2023-05-02T00:24:54;10.00;99.90
52731;DHT22;38624;53.242;6.974;2023-05-02T00:27:19;10.00;99.90
52731;DHT22;38624;53.242;6.974;2023-05-02T00:29:45;10.00;99.90
52731;DHT22;38624;53.242;6.974;2023-05-02T00:32:12;10.00;99.90
52731;DHT22;38624;53.242;6.974;2023-05-02T00:34:37;10.00;99.90
52731;DHT22;38624;53.242;6.974;2023-05-02T00:37:03;9.90;99.90
52731;DHT22;38624;53.242;6.974;2023-05-02T00:39:28;9.90;99.90
52731;DHT22;38624;53.242;6.974;2023-05-02T00:41:57;9.90;99.90
52731;DHT22;38624;53.242;6.974;2023-05-02T00:44:23;9.90;99.90
52731;DHT22;38624;53.242;6.974;2023-05-02T00:46:49;9.90;99.90
52731;DHT22;38624;53.242;6.974;2023-05-02T00:49:14;10.00;99.90
52731;DHT22;38624;53.242;6.974;2023-05-02T00:51:40;10.00;99.90
52731;DHT22;38624;53.242;6.974;2023-05-02T00:54:05;10.00;99.90
52731;DHT22;38624;53.242;6.974;2023-05-02T00:56:31;10.00;99.90
52731;DHT22;38624;53.242;6.974;2023-05-02T00:58:57;10.00;99.90
52731;DHT22;38624;53.242;6.974;2023-05-02T01:01:35;10.00;99.90
52731;DHT22;38624;53.242;6.974;2023-05-02T01:14:46;10.00;99.90
52731;DHT22;38624;53.242;6.974;2023-05-02T01:17:13;10.00;99.90
52731;DHT22;38624;53.242;6.974;2023-05-02T01:19:40;9.90;99.90
52731;DHT22;38624;53.242;6.974;2023-05-02T01:22:07;9.90;99.90
52731;DHT22;38624;53.242;6.974;2023-05-02T01:24:39;9.90;99.90
52731;DHT22;38624;53.242;6.974;2023-05-02T01:27:17;9.80;99.90
52731;DHT22;38624;53.242;6.974;2023-05-02T01:29:46;9.80;99.90
52731;DHT22;38624;53.242;6.974;2023-05-02T01:32:14;9.70;99.90
52731;DHT22;38624;53.242;6.974;2023-05-02T01:34:40;9.70;99.90
52731;DHT22;38624;53.242;6.974;2023-05-02T01:37:07;9.70;99.90
52731;DHT22;38624;53.242;6.974;2023-05-02T01:39:35;9.70;99.90
52731;DHT22;38624;53.242;6.974;2023-05-02T01:42:02;9.70;99.90
52731;DHT22;38624;53.242;6.974;2023-05-02T01:44:29;9.60;99.90
52731;DHT22;38624;53.242;6.974;2023-05-02T01:46:57;9.60;99.90
52731;DHT22;38624;53.242;6.974;2023-05-02T01:49:24;9.50;99.90
52731;DHT22;38624;53.242;6.974;2023-05-02T01:51:51;9.50;99.90
52731;DHT22;38624;53.242;6.974;2023-05-02T01:54:17;9.40;99.90
52731;DHT22;38624;53.242;6.974;2023-05-02T01:56:44;9.40;99.90
52731;DHT22;38624;53.242;6.974;2023-05-02T01:59:13;9.30;99.90
52731;DHT22;38624;53.242;6.974;2023-05-02T02:01:39;9.20;99.90
52731;DHT22;38624;53.242;6.974;2023-05-02T02:04:06;9.20;99.90
52731;DHT22;38624;53.242;6.974;2023-05-02T02:06:33;9.20;99.90
52731;DHT22;38624;53.242;6.974;2023-05-02T02:08:59;9.10;99.90
52731;DHT22;38624;53.242;6.974;2023-05-02T02:11:46;9.10;99.90
52731;DHT22;38624;53.242;6.974;2023-05-02T02:14:32;9.00;99.90
52731;DHT22;38624;53.242;6.974;2023-05-02T02:16:58;9.00;99.90
52731;DHT22;38624;53.242;6.974;2023-05-02T02:19:25;9.10;99.90
52731;DHT22;38624;53.242;6.974;2023-05-02T02:21:51;9.10;99.90
52731;DHT22;38624;53.242;6.974;2023-05-02T02:24:19;9.00;99.90
52731;DHT22;38624;53.242;6.974;2023-05-02T02:26:46;8.90;99.90
52731;DHT22;38624;53.242;6.974;2023-05-02T02:29:11;8.90;99.90
52731;DHT22;38624;53.242;6.974;2023-05-02T02:31:37;8.90;99.90
52731;DHT22;38624;53.242;6.974;2023-05-02T02:34:04;8.90;99.90
52731;DHT22;38624;53.242;6.974;2023-05-02T02:36:33;8.90;99.90
52731;DHT22;38624;53.242;6.974;2023-05-02T02:41:35;8.80;99.90
52731;DHT22;38624;53.242;6.974;2023-05-02T02:47:05;8.70;99.90
52731;DHT22;38624;53.242;6.974;2023-05-02T02:52:27;8.70;99.90
52731;DHT22;38624;53.242;6.974;2023-05-02T02:54:58;8.60;99.90
52731;DHT22;38624;53.242;6.974;2023-05-02T03:00:15;8.60;99.90
52731;DHT22;38624;53.242;6.974;2023-05-02T03:02:39;8.60;99.90
52731;DHT22;38624;53.242;6.974;2023-05-02T03:05:06;8.50;99.90
52731;DHT22;38624;53.242;6.974;2023-05-02T03:07:32;8.50;99.90
52731;DHT22;38624;53.242;6.974;2023-05-02T03:10:01;8.50;99.90
52731;DHT22;38624;53.242;6.974;2023-05-02T03:12:27;8.40;99.90
52731;DHT22;38624;53.242;6.974;2023-05-02T03:14:52;8.40;99.90
52731;DHT22;38624;53.242;6.974;2023-05-02T03:17:23;8.40;99.90
52731;DHT22;38624;53.242;6.974;2023-05-02T03:19:49;8.40;99.90
52731;DHT22;38624;53.242;6.974;2023-05-02T03:22:14;8.30;99.90
52731;DHT22;38624;53.242;6.974;2023-05-02T03:24:40;8.30;99.90
52731;DHT22;38624;53.242;6.974;2023-05-02T03:27:06;8.40;99.90
52731;DHT22;38624;53.242;6.974;2023-05-02T03:29:31;8.20;99.90
52731;DHT22;38624;53.242;6.974;2023-05-02T03:31:57;8.30;99.90
52731;DHT22;38624;53.242;6.974;2023-05-02T03:34:23;8.10;99.90
52731;DHT22;38624;53.242;6.974;2023-05-02T03:36:48;8.10;99.90
52731;DHT22;38624;53.242;6.974;2023-05-02T03:39:14;8.10;99.90
52731;DHT22;38624;53.242;6.974;2023-05-02T03:41:39;8.00;99.90
52731;DHT22;38624;53.242;6.974;2023-05-02T03:44:06;8.10;99.90
52731;DHT22;38624;53.242;6.974;2023-05-02T03:46:32;8.00;99.90
52731;DHT22;38624;53.242;6.974;2023-05-02T03:48:57;8.00;99.90
52731;DHT22;38624;53.242;6.974;2023-05-02T03:51:23;8.00;99.90
52731;DHT22;38624;53.242;6.974;2023-05-02T03:53:48;8.10;99.90
52731;DHT22;38624;53.242;6.974;2023-05-02T03:56:17;7.90;99.90
52731;DHT22;38624;53.242;6.974;2023-05-02T03:58:47;7.90;99.90
52731;DHT22;38624;53.242;6.974;2023-05-02T04:01:13;8.30;99.90
52731;DHT22;38624;53.242;6.974;2023-05-02T04:03:39;7.80;99.90
52731;DHT22;38624;53.242;6.974;2023-05-02T04:06:05;7.80;99.90
52731;DHT22;38624;53.242;6.974;2023-05-02T04:08:31;7.80;99.90
52731;DHT22;38624;53.242;6.974;2023-05-02T04:10:57;7.90;99.90
52731;DHT22;38624;53.242;6.974;2023-05-02T04:13:22;7.70;99.90
52731;DHT22;38624;53.242;6.974;2023-05-02T04:15:48;7.70;99.90
52731;DHT22;38624;53.242;6.974;2023-05-02T04:18:13;7.80;99.90
52731;DHT22;38624;53.242;6.974;2023-05-02T04:20:41;7.80;99.90
52731;DHT22;38624;53.242;6.974;2023-05-02T04:23:07;7.80;99.90
52731;DHT22;38624;53.242;6.974;2023-05-02T04:25:32;7.80;99.90
52731;DHT22;38624;53.242;6.974;2023-05-02T04:27:58;7.80;99.90
52731;DHT22;38624;53.242;6.974;2023-05-02T04:30:23;7.70;99.90
52731;DHT22;38624;53.242;6.974;2023-05-02T04:32:49;7.70;99.90
52731;DHT22;38624;53.242;6.974;2023-05-02T04:35:15;7.70;99.90
52731;DHT22;38624;53.242;6.974;2023-05-02T04:37:41;7.90;99.90
52731;DHT22;38624;53.242;6.974;2023-05-02T04:40:07;7.70;99.90
52731;DHT22;38624;53.242;6.974;2023-05-02T04:42:33;7.70;99.90
52731;DHT22;38624;53.242;6.974;2023-05-02T04:44:58;7.70;99.90
52731;DHT22;38624;53.242;6.974;2023-05-02T04:47:24;7.70;99.90
52731;DHT22;38624;53.242;6.974;2023-05-02T04:49:50;7.70;99.90
52731;DHT22;38624;53.242;6.974;2023-05-02T04:52:15;7.70;99.90
52731;DHT22;38624;53.242;6.974;2023-05-02T04:54:41;7.70;99.90
52731;DHT22;38624;53.242;6.974;2023-05-02T04:57:07;7.70;99.90
52731;DHT22;38624;53.242;6.974;2023-05-02T04:59:34;7.70;99.90
52731;DHT22;38624;53.242;6.974;2023-05-02T05:02:00;7.70;99.90
52731;DHT22;38624;53.242;6.974;2023-05-02T05:04:26;7.70;99.90
52731;DHT22;38624;53.242;6.974;2023-05-02T05:06:51;7.70;99.90
52731;DHT22;38624;53.242;6.974;2023-05-02T05:09:17;7.70;99.90
52731;DHT22;38624;53.242;6.974;2023-05-02T05:11:42;7.70;99.90
52731;DHT22;38624;53.242;6.974;2023-05-02T05:14:10;7.60;99.90
52731;DHT22;38624;53.242;6.974;2023-05-02T05:16:36;7.60;99.90
52731;DHT22;38624;53.242;6.974;2023-05-02T05:19:01;7.60;99.90
52731;DHT22;38624;53.242;6.974;2023-05-02T05:21:28;7.60;99.90
52731;DHT22;38624;53.242;6.974;2023-05-02T05:23:54;7.60;99.90
52731;DHT22;38624;53.242;6.974;2023-05-02T05:26:19;7.60;99.90
52731;DHT22;38624;53.242;6.974;2023-05-02T05:28:45;7.60;99.90
52731;DHT22;38624;53.242;6.974;2023-05-02T05:31:12;7.50;99.90
52731;DHT22;38624;53.242;6.974;2023-05-02T05:33:38;7.50;99.90
52731;DHT22;38624;53.242;6.974;2023-05-02T05:36:07;7.60;99.90
52731;DHT22;38624;53.242;6.974;2023-05-02T05:38:33;7.50;99.90
52731;DHT22;38624;53.242;6.974;2023-05-02T05:40:58;7.70;99.90
52731;DHT22;38624;53.242;6.974;2023-05-02T05:43:24;7.50;99.90
52731;DHT22;38624;53.242;6.974;2023-05-02T05:45:50;7.70;99.90
52731;DHT22;38624;53.242;6.974;2023-05-02T05:48:16;7.50;99.90
52731;DHT22;38624;53.242;6.974;2023-05-02T05:50:42;7.70;99.90
52731;DHT22;38624;53.242;6.974;2023-05-02T05:53:07;7.70;99.90
52731;DHT22;38624;53.242;6.974;2023-05-02T05:55:33;7.80;99.90
52731;DHT22;38624;53.242;6.974;2023-05-02T05:57:58;7.80;99.90
52731;DHT22;38624;53.242;6.974;2023-05-02T06:00:24;7.90;99.90
52731;DHT22;38624;53.242;6.974;2023-05-02T06:02:49;8.00;99.90
52731;DHT22;38624;53.242;6.974;2023-05-02T06:05:15;8.10;99.90
52731;DHT22;38624;53.242;6.974;2023-05-02T06:07:41;8.10;99.90
52731;DHT22;38624;53.242;6.974;2023-05-02T06:10:06;8.10;99.90
52731;DHT22;38624;53.242;6.974;2023-05-02T06:12:33;8.10;99.90
52731;DHT22;38624;53.242;6.974;2023-05-02T06:14:59;8.10;99.90
52731;DHT22;38624;53.242;6.974;2023-05-02T06:17:25;8.10;99.90
52731;DHT22;38624;53.242;6.974;2023-05-02T06:19:51;8.20;99.90
52731;DHT22;38624;53.242;6.974;2023-05-02T06:22:16;8.30;99.90
52731;DHT22;38624;53.242;6.974;2023-05-02T06:24:42;8.60;99.90
52731;DHT22;38624;53.242;6.974;2023-05-02T06:27:07;8.50;99.90
52731;DHT22;38624;53.242;6.974;2023-05-02T06:29:33;8.50;99.90
52731;DHT22;38624;53.242;6.974;2023-05-02T06:31:59;8.50;99.90
52731;DHT22;38624;53.242;6.974;2023-05-02T06:34:24;8.60;99.90
52731;DHT22;38624;53.242;6.974;2023-05-02T06:36:56;8.50;99.90
52731;DHT22;38624;53.242;6.974;2023-05-02T06:39:21;8.60;99.90
52731;DHT22;38624;53.242;6.974;2023-05-02T06:41:47;8.60;99.90
52731;DHT22;38624;53.242;6.974;2023-05-02T06:44:13;8.60;99.90
52731;DHT22;38624;53.242;6.974;2023-05-02T06:46:38;8.70;99.90
52731;DHT22;38624;53.242;6.974;2023-05-02T06:49:04;8.70;99.90
52731;DHT22;38624;53.242;6.974;2023-05-02T06:51:29;8.60;99.90
52731;DHT22;38624;53.242;6.974;2023-05-02T06:53:56;8.90;99.90
52731;DHT22;38624;53.242;6.974;2023-05-02T06:56:22;8.80;99.90
52731;DHT22;38624;53.242;6.974;2023-05-02T06:58:49;8.90;99.90
52731;DHT22;38624;53.242;6.974;2023-05-02T07:01:15;8.80;99.90
52731;DHT22;38624;53.242;6.974;2023-05-02T07:03:41;8.90;99.90
52731;DHT22;38624;53.242;6.974;2023-05-02T07:06:06;8.80;99.90
52731;DHT22;38624;53.242;6.974;2023-05-02T07:08:32;8.90;99.90
52731;DHT22;38624;53.242;6.974;2023-05-02T07:10:57;8.90;99.90
52731;DHT22;38624;53.242;6.974;2023-05-02T07:13:23;9.00;99.90
52731;DHT22;38624;53.242;6.974;2023-05-02T07:15:48;9.10;99.90
52731;DHT22;38624;53.242;6.974;2023-05-02T07:18:14;9.10;99.90
52731;DHT22;38624;53.242;6.974;2023-05-02T07:20:39;9.20;99.90
52731;DHT22;38624;53.242;6.974;2023-05-02T07:23:06;9.30;99.90
52731;DHT22;38624;53.242;6.974;2023-05-02T07:25:33;9.40;99.90
52731;DHT22;38624;53.242;6.974;2023-05-02T07:27:59;9.50;99.90
52731;DHT22;38624;53.242;6.974;2023-05-02T07:30:24;9.60;99.90
52731;DHT22;38624;53.242;6.974;2023-05-02T07:32:50;9.70;99.90
52731;DHT22;38624;53.242;6.974;2023-05-02T07:35:15;9.60;99.90
52731;DHT22;38624;53.242;6.974;2023-05-02T07:37:41;9.80;99.90
52731;DHT22;38624;53.242;6.974;2023-05-02T07:40:07;9.80;99.90
52731;DHT22;38624;53.242;6.974;2023-05-02T07:42:33;9.90;99.90
52731;DHT22;38624;53.242;6.974;2023-05-02T07:44:59;9.90;99.90
52731;DHT22;38624;53.242;6.974;2023-05-02T07:47:25;9.80;99.90
52731;DHT22;38624;53.242;6.974;2023-05-02T07:49:51;9.90;99.90
52731;DHT22;38624;53.242;6.974;2023-05-02T07:52:17;10.10;99.90
52731;DHT22;38624;53.242;6.974;2023-05-02T07:54:43;10.20;99.90
52731;DHT22;38624;53.242;6.974;2023-05-02T07:57:08;10.10;99.90
52731;DHT22;38624;53.242;6.974;2023-05-02T07:59:34;10.10;99.90
52731;DHT22;38624;53.242;6.974;2023-05-02T08:02:00;10.00;99.90
52731;DHT22;38624;53.242;6.974;2023-05-02T08:04:25;10.10;99.90
52731;DHT22;38624;53.242;6.974;2023-05-02T08:06:51;10.00;99.90
52731;DHT22;38624;53.242;6.974;2023-05-02T08:09:16;10.00;99.90
52731;DHT22;38624;53.242;6.974;2023-05-02T08:11:42;10.10;99.90
52731;DHT22;38624;53.242;6.974;2023-05-02T08:14:08;10.00;99.90
52731;DHT22;38624;53.242;6.974;2023-05-02T08:16:33;10.00;99.90
52731;DHT22;38624;53.242;6.974;2023-05-02T08:18:59;9.90;99.90
52731;DHT22;38624;53.242;6.974;2023-05-02T08:21:24;10.30;99.90
52731;DHT22;38624;53.242;6.974;2023-05-02T08:23:52;10.60;99.90
52731;DHT22;38624;53.242;6.974;2023-05-02T08:26:21;10.70;99.90
52731;DHT22;38624;53.242;6.974;2023-05-02T08:28:52;10.70;99.90
52731;DHT22;38624;53.242;6.974;2023-05-02T08:31:18;10.70;99.90
52731;DHT22;38624;53.242;6.974;2023-05-02T08:33:44;11.00;99.90
52731;DHT22;38624;53.242;6.974;2023-05-02T08:36:10;11.20;99.90
52731;DHT22;38624;53.242;6.974;2023-05-02T08:38:36;11.60;99.90
52731;DHT22;38624;53.242;6.974;2023-05-02T08:41:01;11.90;99.90
52731;DHT22;38624;53.242;6.974;2023-05-02T08:43:27;12.00;99.90
52731;DHT22;38624;53.242;6.974;2023-05-02T08:45:54;11.90;99.90
52731;DHT22;38624;53.242;6.974;2023-05-02T08:48:22;11.80;99.90
52731;DHT22;38624;53.242;6.974;2023-05-02T08:50:48;11.70;99.90
52731;DHT22;38624;53.242;6.974;2023-05-02T08:53:14;11.50;99.60
52731;DHT22;38624;53.242;6.974;2023-05-02T08:55:40;11.40;99.50
52731;DHT22;38624;53.242;6.974;2023-05-02T08:58:06;11.40;99.90
52731;DHT22;38624;53.242;6.974;2023-05-02T09:00:34;11.60;99.90
52731;DHT22;38624;53.242;6.974;2023-05-02T09:05:40;11.80;99.80
52731;DHT22;38624;53.242;6.974;2023-05-02T09:08:06;11.90;99.90
52731;DHT22;38624;53.242;6.974;2023-05-02T09:10:35;11.80;99.90
52731;DHT22;38624;53.242;6.974;2023-05-02T09:15:56;11.60;99.90
52731;DHT22;38624;53.242;6.974;2023-05-02T09:18:22;11.40;99.90
52731;DHT22;38624;53.242;6.974;2023-05-02T09:20:49;11.10;99.90
52731;DHT22;38624;53.242;6.974;2023-05-02T09:23:15;10.60;99.90
52731;DHT22;38624;53.242;6.974;2023-05-02T09:25:41;10.40;99.90
52731;DHT22;38624;53.242;6.974;2023-05-02T09:28:06;10.70;99.90
52731;DHT22;38624;53.242;6.974;2023-05-02T09:30:32;11.10;99.90
52731;DHT22;38624;53.242;6.974;2023-05-02T09:32:58;11.60;99.90
52731;DHT22;38624;53.242;6.974;2023-05-02T09:35:23;11.90;99.90
52731;DHT22;38624;53.242;6.974;2023-05-02T09:37:50;12.00;99.90
52731;DHT22;38624;53.242;6.974;2023-05-02T09:40:16;12.00;99.90
52731;DHT22;38624;53.242;6.974;2023-05-02T09:42:41;12.10;99.90
52731;DHT22;38624;53.242;6.974;2023-05-02T09:45:07;11.90;99.90
52731;DHT22;38624;53.242;6.974;2023-05-02T09:47:33;11.90;99.90
52731;DHT22;38624;53.242;6.974;2023-05-02T09:49:58;11.60;99.90
52731;DHT22;38624;53.242;6.974;2023-05-02T09:52:24;11.40;99.90
52731;DHT22;38624;53.242;6.974;2023-05-02T09:54:49;11.20;99.90
52731;DHT22;38624;53.242;6.974;2023-05-02T09:57:16;11.30;99.90
52731;DHT22;38624;53.242;6.974;2023-05-02T09:59:52;11.20;99.90
52731;DHT22;38624;53.242;6.974;2023-05-02T10:02:18;11.00;99.90
52731;DHT22;38624;53.242;6.974;2023-05-02T10:04:46;11.20;99.90
52731;DHT22;38624;53.242;6.974;2023-05-02T10:07:12;11.40;99.90
52731;DHT22;38624;53.242;6.974;2023-05-02T10:09:40;11.70;99.90
52731;DHT22;38624;53.242;6.974;2023-05-02T10:12:07;12.00;99.90
52731;DHT22;38624;53.242;6.974;2023-05-02T10:14:34;11.70;99.90
52731;DHT22;38624;53.242;6.974;2023-05-02T10:17:04;11.30;99.90
52731;DHT22;38624;53.242;6.974;2023-05-02T10:19:37;11.40;99.90
52731;DHT22;38624;53.242;6.974;2023-05-02T10:22:03;11.50;99.90
52731;DHT22;38624;53.242;6.974;2023-05-02T10:24:30;11.60;99.90
52731;DHT22;38624;53.242;6.974;2023-05-02T10:26:56;11.60;99.90
52731;DHT22;38624;53.242;6.974;2023-05-02T10:29:22;11.70;99.90
52731;DHT22;38624;53.242;6.974;2023-05-02T10:31:48;11.70;99.90
52731;DHT22;38624;53.242;6.974;2023-05-02T10:34:14;11.90;99.90
52731;DHT22;38624;53.242;6.974;2023-05-02T10:36:41;12.00;99.90
52731;DHT22;38624;53.242;6.974;2023-05-02T10:39:06;12.30;99.90
52731;DHT22;38624;53.242;6.974;2023-05-02T10:41:32;12.50;99.90
52731;DHT22;38624;53.242;6.974;2023-05-02T10:43:58;12.40;99.90
52731;DHT22;38624;53.242;6.974;2023-05-02T10:46:28;12.40;99.90
52731;DHT22;38624;53.242;6.974;2023-05-02T10:51:26;12.00;99.90
52731;DHT22;38624;53.242;6.974;2023-05-02T10:53:52;12.10;99.90
52731;DHT22;38624;53.242;6.974;2023-05-02T10:56:21;12.90;99.90
52731;DHT22;38624;53.242;6.974;2023-05-02T10:58:50;13.10;99.90
52731;DHT22;38624;53.242;6.974;2023-05-02T11:03:55;13.80;99.30
52731;DHT22;38624;53.242;6.974;2023-05-02T11:06:21;14.40;98.20
52731;DHT22;38624;53.242;6.974;2023-05-02T11:08:47;14.10;97.70
52731;DHT22;38624;53.242;6.974;2023-05-02T11:13:57;13.00;97.90
52731;DHT22;38624;53.242;6.974;2023-05-02T11:16:22;12.50;97.70
52731;DHT22;38624;53.242;6.974;2023-05-02T11:18:57;12.80;97.70
52731;DHT22;38624;53.242;6.974;2023-05-02T11:21:24;15.90;98.10
52731;DHT22;38624;53.242;6.974;2023-05-02T11:23:51;16.50;93.40
52731;DHT22;38624;53.242;6.974;2023-05-02T11:26:20;16.70;93.60
52731;DHT22;38624;53.242;6.974;2023-05-02T11:28:46;18.90;91.90
52731;DHT22;38624;53.242;6.974;2023-05-02T11:33:56;19.70;80.00
52731;DHT22;38624;53.242;6.974;2023-05-02T11:36:28;18.90;78.60
52731;DHT22;38624;53.242;6.974;2023-05-02T11:38:54;18.20;82.70
52731;DHT22;38624;53.242;6.974;2023-05-02T11:41:20;17.00;80.80
52731;DHT22;38624;53.242;6.974;2023-05-02T11:43:45;18.30;88.80
52731;DHT22;38624;53.242;6.974;2023-05-02T11:46:11;17.90;85.50
52731;DHT22;38624;53.242;6.974;2023-05-02T11:48:36;17.10;89.50
52731;DHT22;38624;53.242;6.974;2023-05-02T11:51:02;16.40;91.00
52731;DHT22;38624;53.242;6.974;2023-05-02T11:53:29;15.40;90.80
52731;DHT22;38624;53.242;6.974;2023-05-02T11:55:59;14.90;92.30
52731;DHT22;38624;53.242;6.974;2023-05-02T11:58:26;14.10;92.60
52731;DHT22;38624;53.242;6.974;2023-05-02T12:00:54;13.80;91.80
52731;DHT22;38624;53.242;6.974;2023-05-02T12:05:49;14.10;96.40
52731;DHT22;38624;53.242;6.974;2023-05-02T12:08:22;15.00;93.50
52731;DHT22;38624;53.242;6.974;2023-05-02T12:10:49;18.10;96.00
52731;DHT22;38624;53.242;6.974;2023-05-02T12:13:16;19.50;92.50
52731;DHT22;38624;53.242;6.974;2023-05-02T12:15:41;19.30;91.00
52731;DHT22;38624;53.242;6.974;2023-05-02T12:18:07;18.60;92.30
52731;DHT22;38624;53.242;6.974;2023-05-02T12:20:33;18.00;92.00
52731;DHT22;38624;53.242;6.974;2023-05-02T12:22:58;18.00;90.30
52731;DHT22;38624;53.242;6.974;2023-05-02T12:25:24;18.90;79.60
52731;DHT22;38624;53.242;6.974;2023-05-02T12:28:00;18.90;84.00
52731;DHT22;38624;53.242;6.974;2023-05-02T12:30:26;18.30;79.50
52731;DHT22;38624;53.242;6.974;2023-05-02T12:32:54;17.60;80.70
52731;DHT22;38624;53.242;6.974;2023-05-02T12:35:20;19.40;81.60
52731;DHT22;38624;53.242;6.974;2023-05-02T12:37:47;19.90;80.90
52731;DHT22;38624;53.242;6.974;2023-05-02T12:40:15;19.30;72.90
52731;DHT22;38624;53.242;6.974;2023-05-02T12:42:42;18.50;72.30
52731;DHT22;38624;53.242;6.974;2023-05-02T12:45:17;17.60;75.40
52731;DHT22;38624;53.242;6.974;2023-05-02T12:47:45;17.40;77.60
52731;DHT22;38624;53.242;6.974;2023-05-02T12:50:11;17.30;76.80
52731;DHT22;38624;53.242;6.974;2023-05-02T12:52:50;18.30;76.60
52731;DHT22;38624;53.242;6.974;2023-05-02T12:55:22;19.90;74.60
52731;DHT22;38624;53.242;6.974;2023-05-02T12:57:49;22.00;75.80
52731;DHT22;38624;53.242;6.974;2023-05-02T13:00:18;20.60;72.30
52731;DHT22;38624;53.242;6.974;2023-05-02T13:02:43;19.00;68.60
52731;DHT22;38624;53.242;6.974;2023-05-02T13:05:15;17.70;68.60
52731;DHT22;38624;53.242;6.974;2023-05-02T13:07:41;17.00;72.50
52731;DHT22;38624;53.242;6.974;2023-05-02T13:10:07;17.50;75.80
52731;DHT22;38624;53.242;6.974;2023-05-02T13:12:33;16.90;77.90
52731;DHT22;38624;53.242;6.974;2023-05-02T13:15:01;16.00;76.90
52731;DHT22;38624;53.242;6.974;2023-05-02T13:17:27;15.30;78.50
52731;DHT22;38624;53.242;6.974;2023-05-02T13:19:53;14.60;81.30
52731;DHT22;38624;53.242;6.974;2023-05-02T13:22:18;14.60;81.40
52731;DHT22;38624;53.242;6.974;2023-05-02T13:24:44;14.20;83.00
52731;DHT22;38624;53.242;6.974;2023-05-02T13:27:10;14.20;82.70
52731;DHT22;38624;53.242;6.974;2023-05-02T13:29:36;14.00;81.90
52731;DHT22;38624;53.242;6.974;2023-05-02T13:32:01;13.90;82.30
52731;DHT22;38624;53.242;6.974;2023-05-02T13:34:27;13.80;84.00
52731;DHT22;38624;53.242;6.974;2023-05-02T13:36:52;13.90;84.10
52731;DHT22;38624;53.242;6.974;2023-05-02T13:39:18;14.10;82.50
52731;DHT22;38624;53.242;6.974;2023-05-02T13:41:44;14.20;85.90
52731;DHT22;38624;53.242;6.974;2023-05-02T13:44:09;14.00;90.30
52731;DHT22;38624;53.242;6.974;2023-05-02T13:46:35;14.20;91.30
52731;DHT22;38624;53.242;6.974;2023-05-02T13:49:02;14.40;92.50
52731;DHT22;38624;53.242;6.974;2023-05-02T13:51:28;14.90;93.00
52731;DHT22;38624;53.242;6.974;2023-05-02T13:53:58;14.70;91.50
52731;DHT22;38624;53.242;6.974;2023-05-02T13:56:24;14.20;92.60
52731;DHT22;38624;53.242;6.974;2023-05-02T13:58:50;14.00;95.30
52731;DHT22;38624;53.242;6.974;2023-05-02T14:01:16;13.60;93.40
52731;DHT22;38624;53.242;6.974;2023-05-02T14:03:41;13.10;95.10
52731;DHT22;38624;53.242;6.974;2023-05-02T14:06:07;12.90;94.90
52731;DHT22;38624;53.242;6.974;2023-05-02T14:08:32;12.80;95.00
52731;DHT22;38624;53.242;6.974;2023-05-02T14:10:58;12.80;94.20
52731;DHT22;38624;53.242;6.974;2023-05-02T14:13:24;13.10;95.10
52731;DHT22;38624;53.242;6.974;2023-05-02T14:15:50;13.80;93.90
52731;DHT22;38624;53.242;6.974;2023-05-02T14:18:15;14.10;92.90
52731;DHT22;38624;53.242;6.974;2023-05-02T14:20:41;14.40;91.80
52731;DHT22;38624;53.242;6.974;2023-05-02T14:23:07;14.50;90.70
52731;DHT22;38624;53.242;6.974;2023-05-02T14:25:33;14.30;90.30
52731;DHT22;38624;53.242;6.974;2023-05-02T14:27:58;14.10;91.00
52731;DHT22;38624;53.242;6.974;2023-05-02T14:30:24;13.90;91.60
52731;DHT22;38624;53.242;6.974;2023-05-02T14:32:50;13.70;91.20
52731;DHT22;38624;53.242;6.974;2023-05-02T14:35:16;13.70;90.60
52731;DHT22;38624;53.242;6.974;2023-05-02T14:37:42;13.50;91.40
52731;DHT22;38624;53.242;6.974;2023-05-02T14:40:09;13.70;90.50
52731;DHT22;38624;53.242;6.974;2023-05-02T14:42:35;14.10;90.90
52731;DHT22;38624;53.242;6.974;2023-05-02T14:45:00;14.00;91.20
52731;DHT22;38624;53.242;6.974;2023-05-02T14:47:29;13.80;90.10
52731;DHT22;38624;53.242;6.974;2023-05-02T14:49:55;13.50;90.30
52731;DHT22;38624;53.242;6.974;2023-05-02T14:52:21;13.10;90.80
52731;DHT22;38624;53.242;6.974;2023-05-02T14:54:47;13.00;90.00
52731;DHT22;38624;53.242;6.974;2023-05-02T14:57:12;13.10;90.20
52731;DHT22;38624;53.242;6.974;2023-05-02T14:59:38;13.10;90.90
52731;DHT22;38624;53.242;6.974;2023-05-02T15:02:04;13.20;90.50
52731;DHT22;38624;53.242;6.974;2023-05-02T15:04:30;13.40;90.70
52731;DHT22;38624;53.242;6.974;2023-05-02T15:06:56;13.60;90.90
52731;DHT22;38624;53.242;6.974;2023-05-02T15:09:22;13.80;91.10
52731;DHT22;38624;53.242;6.974;2023-05-02T15:11:53;14.10;91.30
52731;DHT22;38624;53.242;6.974;2023-05-02T15:14:19;15.30;91.90
52731;DHT22;38624;53.242;6.974;2023-05-02T15:16:45;15.60;89.90
52731;DHT22;38624;53.242;6.974;2023-05-02T15:19:11;15.30;90.00
52731;DHT22;38624;53.242;6.974;2023-05-02T15:21:36;14.60;90.10
52731;DHT22;38624;53.242;6.974;2023-05-02T15:24:02;14.00;90.30
52731;DHT22;38624;53.242;6.974;2023-05-02T15:26:28;13.90;91.50
52731;DHT22;38624;53.242;6.974;2023-05-02T15:28:54;13.60;91.60
52731;DHT22;38624;53.242;6.974;2023-05-02T15:31:20;13.20;91.60
52731;DHT22;38624;53.242;6.974;2023-05-02T15:33:46;12.90;91.30
52731;DHT22;38624;53.242;6.974;2023-05-02T15:36:11;13.00;91.50
52731;DHT22;38624;53.242;6.974;2023-05-02T15:38:38;13.20;91.50
52731;DHT22;38624;53.242;6.974;2023-05-02T15:41:06;13.20;91.20
52731;DHT22;38624;53.242;6.974;2023-05-02T15:43:32;13.20;91.20
52731;DHT22;38624;53.242;6.974;2023-05-02T15:45:58;13.10;90.50
52731;DHT22;38624;53.242;6.974;2023-05-02T15:48:30;13.00;91.20
52731;DHT22;38624;53.242;6.974;2023-05-02T15:50:57;13.20;90.30
52731;DHT22;38624;53.242;6.974;2023-05-02T15:53:23;13.10;90.20
52731;DHT22;38624;53.242;6.974;2023-05-02T15:55:49;12.70;90.40
52731;DHT22;38624;53.242;6.974;2023-05-02T15:58:15;12.40;90.50
52731;DHT22;38624;53.242;6.974;2023-05-02T16:00:42;12.50;91.00
52731;DHT22;38624;53.242;6.974;2023-05-02T16:03:07;12.20;90.90
52731;DHT22;38624;53.242;6.974;2023-05-02T16:05:33;12.20;90.50
52731;DHT22;38624;53.242;6.974;2023-05-02T16:07:59;12.60;90.90
52731;DHT22;38624;53.242;6.974;2023-05-02T16:10:25;12.80;91.00
52731;DHT22;38624;53.242;6.974;2023-05-02T16:12:51;12.40;90.60